Huvudsida
METAR-TAF:

METAR-TAF

Flygplatser :

Ängelholm-Helsingborg Airport

Helsingborg, Sverige

latitud: 56-17-46N, longitud: 012-50-50E, höjd: 21 m

Aktuellt väderrapport

Denna rapport gjordes för 31 minuter sedan, klockan 16:50 UTC
Vind 17 kt från ost/sydost
Temperatur 23°C
Fuktighet 47%
Tryck 1012 hPa
Sikt 10 km eller mer
Inga moln under 1 500 m eller inga cumulonimbus

METAR: ESTA 221650Z 11017KT CAVOK 23/11 Q1012

Tid: 19:21 (17:21 UTC)

Väderprognos

Denna rapport gjordes för 3 timmar och 15 minuter sedan, klockan 14:06 UTC
Prognos gäller från 22 kl. 15 UTC till 22 kl. 22 UTC
Vind 18 kt från ost
Sikt 10 km eller mer
Inga moln under 1 500 m eller inga cumulonimbus
Temporärt
från 22 kl. 15 UTC till 22 kl. 18 UTC
Vind 18 kt från ost i byarna ända upp till 28 kt

TAF: ESTA 221406Z 2215/2222 10018KT CAVOK TEMPO 2215/2218 10018G28KT

Aktuella väderrapporter och prognoser från 4000 flygplatser (METAR- och TAF-rapporter).

De tillgängliga stationerna syns som gula och röda prickar på kartan.

För musen över prickarna för att se namnen på stationerna.

Klicka sedan för att få väderrapporter och prognoser.

För att ändra kartan: Klicka på de gröna knapparna med ett svart kors på för att zooma in; den gröna knappen med ett streck på för att zooma ut; eller på de gröna pilarna för angränsande kartor.


METAR-TAF: